首页
METAR-TAF:

METAR-TAF

机场 :

Rocky Mount-Wilson Regional Airport

Rocky Mount, 北卡罗来纳州, 美国

纬度: 35-51-18N, 经度: 077-53-35W, 海拔: 49米

当前天气观测

该预报发布于24分钟前的15:53 UTC
风速7节,风向南转西南
温度 31°C
湿度 55%
气压 1018 hPa
能見度: 16.1公里
少量云层高于6000英尺

METAR: KRWI 161553Z AUTO 21007KT 10SM FEW060 31/21 A3005 RMK AO2 SLP174 T03060211

时间: 12:17 (16:17 UTC)

预报

该预报发布于4小时和48分钟前的11:29 UTC
预报有效从16日的 12点(UTC)到 17日的 12点(UTC)
风速5节,风向南转西南
能見度: 10公里
阴天层高于20000英尺
从 16日的 1700点(UTC)
风速8节,风向
能見度: 10公里
散云层高于3500英尺
多云层高于20000英尺
从 17日的 0900点(UTC)
风速6节,风向西南
能見度: 10公里
多云层高于10000英尺

TAF: KRWI 161129Z 1612/1712 20005KT P6SM OVC200 FM161700 19008KT P6SM SCT035 BKN200 FM170900 23006KT P6SM BKN100

超过4000个机场的气象观测和天气预报(METAR&TAF报告)。

可查询的气象台以黄色和红色小点在地图上表示。

将鼠标移到小点上方,可查看气象台名称。

然后点击查看天气观测和预报。

如需切换地图:点击带黑十字的绿色按钮放大地图;点击带横线的绿色按钮缩小地图;或者点击绿色箭头查看邻近地区的地图。


METAR-TAF: